createdAt,value
2023-01-25T00:02:14.123Z,18.62
2023-01-25T00:07:13.077Z,18.40
2023-01-25T00:12:13.232Z,18.31
2023-01-25T00:17:11.561Z,18.40
2023-01-25T00:22:10.730Z,17.13
2023-01-25T00:27:11.049Z,17.63
2023-01-25T00:32:10.373Z,17.54
2023-01-25T00:37:09.541Z,16.83
2023-01-25T00:42:08.837Z,16.74
2023-01-25T00:47:07.185Z,17.16
2023-01-25T00:52:08.349Z,18.00
2023-01-25T00:57:07.446Z,18.52
2023-01-25T01:02:05.789Z,19.25
2023-01-25T01:07:04.051Z,19.68
2023-01-25T01:12:03.380Z,20.40
2023-01-25T01:17:03.536Z,21.03
2023-01-25T01:22:01.650Z,21.76
2023-01-25T01:27:01.958Z,21.97
2023-01-25T01:32:01.381Z,22.09
2023-01-25T01:36:59.532Z,22.52
2023-01-25T01:41:59.125Z,22.71
2023-01-25T01:46:59.048Z,22.63
2023-01-25T01:51:57.361Z,23.26
2023-01-25T01:56:57.504Z,24.49
2023-01-25T02:01:56.690Z,24.69
2023-01-25T02:06:55.889Z,25.43
2023-01-25T02:11:55.128Z,25.95
2023-01-25T02:16:53.250Z,26.17
2023-01-25T02:21:54.571Z,26.35
2023-01-25T02:26:52.923Z,26.57
2023-01-25T02:31:51.797Z,26.57
2023-01-25T02:36:50.600Z,26.89
2023-01-25T02:41:49.617Z,27.20
2023-01-25T02:46:48.802Z,27.22
2023-01-25T02:51:48.969Z,27.42
2023-01-25T02:56:47.349Z,27.42
2023-01-25T03:01:46.536Z,27.52
2023-01-25T03:06:46.734Z,27.63
2023-01-25T03:11:45.885Z,27.75
2023-01-25T03:16:45.222Z,27.65
2023-01-25T03:21:43.374Z,27.03
2023-01-25T03:26:41.482Z,26.80
2023-01-25T03:31:41.769Z,26.70
2023-01-25T03:36:40.766Z,26.59
2023-01-25T03:41:40.101Z,26.70
2023-01-25T03:46:39.371Z,26.80
2023-01-25T03:51:38.568Z,26.91
2023-01-25T03:56:38.735Z,27.01
2023-01-25T04:01:37.892Z,27.13
2023-01-25T04:06:36.082Z,27.44
2023-01-25T04:11:36.244Z,27.65
2023-01-25T04:16:34.448Z,27.97
2023-01-25T04:21:33.576Z,27.76
2023-01-25T04:26:32.705Z,26.61
2023-01-25T04:31:31.901Z,25.67
2023-01-25T04:36:32.101Z,25.56
2023-01-25T04:41:30.244Z,25.34
2023-01-25T04:46:29.385Z,24.52
2023-01-25T04:51:28.960Z,24.52
2023-01-25T04:56:28.768Z,24.82
2023-01-25T05:01:26.908Z,24.93
2023-01-25T05:06:26.142Z,25.03
2023-01-25T05:11:26.248Z,25.76
2023-01-25T05:16:24.767Z,25.46
2023-01-25T05:21:24.211Z,25.76
2023-01-25T05:26:23.118Z,25.99
2023-01-25T05:31:22.525Z,26.50
2023-01-25T05:36:22.672Z,26.51
2023-01-25T05:41:22.005Z,26.62
2023-01-25T05:46:20.378Z,26.40
2023-01-25T05:51:22.559Z,25.23
2023-01-25T05:56:19.875Z,24.10
2023-01-25T06:01:18.037Z,23.68
2023-01-25T06:06:18.395Z,23.05
2023-01-25T06:11:17.694Z,22.95
2023-01-25T06:16:17.869Z,23.06
2023-01-25T06:21:15.034Z,23.77
2023-01-25T06:26:14.201Z,23.89
2023-01-25T06:31:13.448Z,24.00
2023-01-25T06:36:13.647Z,24.41
2023-01-25T06:41:12.159Z,24.95
2023-01-25T06:46:10.968Z,25.47
2023-01-25T06:51:12.126Z,25.89
2023-01-25T06:56:10.925Z,26.20
2023-01-25T07:01:08.778Z,26.73
2023-01-25T07:06:08.928Z,27.04
2023-01-25T07:11:08.083Z,26.19
2023-01-25T07:16:06.228Z,25.15
2023-01-25T07:21:07.365Z,24.73
2023-01-25T07:26:04.539Z,24.63
2023-01-25T07:31:02.637Z,24.73
2023-01-25T07:36:02.994Z,24.73
2023-01-25T07:41:02.142Z,24.95
2023-01-25T07:46:02.299Z,25.26
2023-01-25T07:51:00.432Z,25.47
2023-01-25T07:55:59.824Z,25.47
2023-01-25T08:00:59.946Z,24.51
2023-01-25T08:05:58.073Z,23.99
2023-01-25T08:10:59.199Z,23.99
2023-01-25T08:15:57.507Z,23.89
2023-01-25T08:20:55.835Z,24.00
2023-01-25T08:25:55.175Z,22.85
2023-01-25T08:30:57.540Z,19.92
2023-01-25T08:35:53.591Z,18.06
2023-01-25T08:40:53.913Z,17.85
2023-01-25T08:45:53.223Z,17.86
2023-01-25T08:50:52.505Z,18.07
2023-01-25T08:55:51.803Z,18.49
2023-01-25T09:00:49.115Z,18.90
2023-01-25T09:05:51.427Z,19.81
2023-01-25T09:10:51.740Z,20.03
2023-01-25T09:15:50.035Z,20.14
2023-01-25T09:20:47.406Z,20.45
2023-01-25T09:25:46.523Z,20.56
2023-01-25T09:30:47.537Z,20.76
2023-01-25T09:35:45.995Z,20.98
2023-01-25T09:40:45.281Z,21.19
2023-01-25T09:45:44.581Z,21.40
2023-01-25T09:50:42.878Z,21.50
2023-01-25T09:55:42.174Z,20.87
2023-01-25T10:00:41.493Z,20.67
2023-01-25T10:05:40.803Z,19.21
2023-01-25T10:10:38.934Z,18.49
2023-01-25T10:15:39.264Z,18.28
2023-01-25T10:20:39.363Z,18.49
2023-01-25T10:25:37.712Z,18.60
2023-01-25T10:30:36.849Z,18.90
2023-01-25T10:35:40.434Z,19.10
2023-01-25T10:40:35.341Z,19.32
2023-01-25T10:45:35.430Z,19.62
2023-01-25T10:50:34.760Z,19.83
2023-01-25T10:55:33.095Z,20.04
2023-01-25T11:00:32.434Z,20.25
2023-01-25T11:05:31.561Z,20.47
2023-01-25T11:10:31.896Z,20.78
2023-01-25T11:15:30.192Z,20.98
2023-01-25T11:20:29.544Z,20.87
2023-01-25T11:25:28.839Z,19.42
2023-01-25T11:30:29.172Z,18.07
2023-01-25T11:35:27.489Z,17.55
2023-01-25T11:40:27.618Z,17.35
2023-01-25T11:45:27.946Z,17.35
2023-01-25T11:50:26.238Z,17.65
2023-01-25T11:55:26.546Z,18.07
2023-01-25T12:00:23.824Z,18.49
2023-01-25T12:05:22.557Z,18.70
2023-01-25T12:10:23.310Z,19.12
2023-01-25T12:15:21.608Z,19.42
2023-01-25T12:20:20.967Z,19.73
2023-01-25T12:25:20.091Z,19.94
2023-01-25T12:30:19.428Z,20.25
2023-01-25T12:35:18.756Z,20.56
2023-01-25T12:40:19.082Z,20.78
2023-01-25T12:45:18.373Z,20.45
2023-01-25T12:50:17.705Z,18.06
2023-01-25T12:55:16.011Z,17.34
2023-01-25T13:00:16.395Z,17.13
2023-01-25T13:05:14.505Z,17.03
2023-01-25T13:10:14.641Z,17.24
2023-01-25T13:15:15.018Z,17.55
2023-01-25T13:20:12.595Z,17.96
2023-01-25T13:25:11.869Z,18.38
2023-01-25T13:30:11.033Z,18.69
2023-01-25T13:35:10.934Z,19.01
2023-01-25T13:40:10.587Z,19.31
2023-01-25T13:45:09.725Z,19.62
2023-01-25T13:50:07.596Z,19.93
2023-01-25T13:55:07.764Z,20.25
2023-01-25T14:00:10.659Z,20.56
2023-01-25T14:05:08.028Z,20.87
2023-01-25T14:10:06.367Z,20.98
2023-01-25T14:15:04.495Z,19.51
2023-01-25T14:20:02.856Z,17.85
2023-01-25T14:25:03.003Z,17.34
2023-01-25T14:30:02.112Z,17.44
2023-01-25T14:35:01.497Z,17.55
2023-01-25T14:39:59.647Z,17.96
2023-01-25T14:44:58.772Z,18.38
2023-01-25T14:49:58.105Z,18.69
2023-01-25T14:55:00.425Z,19.10
2023-01-25T14:59:58.744Z,19.42
2023-01-25T15:04:55.841Z,19.73
2023-01-25T15:09:55.192Z,19.93
2023-01-25T15:14:55.314Z,20.25
2023-01-25T15:19:52.654Z,20.67
2023-01-25T15:24:58.230Z,20.87
2023-01-25T15:29:53.058Z,21.08
2023-01-25T15:34:52.148Z,19.92
2023-01-25T15:39:51.474Z,18.48
2023-01-25T15:44:49.795Z,17.65
2023-01-25T15:49:48.962Z,17.44
2023-01-25T15:54:59.939Z,17.55
2023-01-25T15:59:47.316Z,17.76
2023-01-25T16:04:46.498Z,18.06
2023-01-25T16:09:46.743Z,18.48
2023-01-25T16:14:45.067Z,18.79
2023-01-25T16:19:44.299Z,19.10
2023-01-25T16:24:43.230Z,19.42
2023-01-25T16:29:42.547Z,19.73
2023-01-25T16:34:42.027Z,20.04
2023-01-25T16:39:41.141Z,20.45
2023-01-25T16:44:43.266Z,20.67
2023-01-25T16:49:41.472Z,20.98
2023-01-25T16:54:38.651Z,21.19
2023-01-25T16:59:40.138Z,21.39
2023-01-25T17:04:37.950Z,19.31
2023-01-25T17:09:36.498Z,18.16
2023-01-25T17:14:35.352Z,17.44
2023-01-25T17:19:34.668Z,17.34
2023-01-25T17:24:36.963Z,17.55
2023-01-25T17:29:34.477Z,17.55
2023-01-25T17:34:33.583Z,17.76
2023-01-25T17:39:31.875Z,18.06
2023-01-25T17:44:31.043Z,18.37
2023-01-25T17:49:31.216Z,18.59
2023-01-25T17:54:29.517Z,18.99
2023-01-25T17:59:28.926Z,19.31
2023-01-25T18:04:28.069Z,19.53
2023-01-25T18:09:27.472Z,19.96
2023-01-25T18:14:26.654Z,17.96
2023-01-25T18:19:26.585Z,16.83
2023-01-25T18:24:24.657Z,15.69
2023-01-25T18:29:24.380Z,15.47
2023-01-25T18:34:22.410Z,15.57
2023-01-25T18:39:23.693Z,14.96
2023-01-25T18:44:21.955Z,14.56
2023-01-25T18:49:23.163Z,14.76
2023-01-25T18:54:22.356Z,14.46
2023-01-25T18:59:19.694Z,14.35
2023-01-25T19:04:18.916Z,14.15
2023-01-25T19:09:18.131Z,14.04
2023-01-25T19:14:22.208Z,13.84
2023-01-25T19:19:16.695Z,13.53
2023-01-25T19:24:18.016Z,13.43
2023-01-25T19:29:15.125Z,13.43
2023-01-25T19:34:15.385Z,13.53
2023-01-25T19:39:14.379Z,13.93
2023-01-25T19:44:12.782Z,13.93
2023-01-25T19:49:12.020Z,13.82
2023-01-25T19:54:11.933Z,14.64
2023-01-25T19:59:10.204Z,13.82
2023-01-25T20:04:10.755Z,13.62
2023-01-25T20:09:09.010Z,13.92
2023-01-25T20:14:08.357Z,13.82
2023-01-25T20:19:06.413Z,13.71
2023-01-25T20:24:06.826Z,13.71
2023-01-25T20:29:19.401Z,13.61
2023-01-25T20:34:05.105Z,13.51
2023-01-25T20:39:04.354Z,13.60
2023-01-25T20:44:03.172Z,13.51
2023-01-25T20:49:02.897Z,13.61
2023-01-25T20:54:02.157Z,13.51
2023-01-25T20:59:01.311Z,13.51
2023-01-25T21:04:01.490Z,13.51
2023-01-25T21:08:59.785Z,13.41
2023-01-25T21:13:58.913Z,13.81
2023-01-25T21:18:58.064Z,13.81
2023-01-25T21:24:00.292Z,13.71
2023-01-25T21:28:56.522Z,13.31
2023-01-25T21:33:56.912Z,13.31
2023-01-25T21:38:54.969Z,13.31
2023-01-25T21:43:54.070Z,13.21
2023-01-25T21:48:54.760Z,13.20
2023-01-25T21:53:52.585Z,13.20
2023-01-25T21:58:51.708Z,13.51
2023-01-25T22:03:51.213Z,13.61
2023-01-25T22:08:49.120Z,13.51
2023-01-25T22:13:50.268Z,13.51
2023-01-25T22:18:48.592Z,13.80
2023-01-25T22:23:47.975Z,13.71
2023-01-25T22:28:47.123Z,13.61
2023-01-25T22:33:46.323Z,13.61
2023-01-25T22:38:45.466Z,13.51
2023-01-25T22:43:45.794Z,13.51
2023-01-25T22:48:44.208Z,13.51
2023-01-25T22:53:42.456Z,13.71
2023-01-25T22:58:42.950Z,14.03
2023-01-25T23:03:41.012Z,13.71
2023-01-25T23:08:41.213Z,13.62
2023-01-25T23:13:41.348Z,13.62
2023-01-25T23:18:40.709Z,13.62
2023-01-25T23:23:38.846Z,13.71
2023-01-25T23:28:39.171Z,13.61
2023-01-25T23:33:37.465Z,13.62
2023-01-25T23:38:36.793Z,13.41
2023-01-25T23:43:37.119Z,13.10
2023-01-25T23:49:17.434Z,13.11
2023-01-25T23:53:36.754Z,13.11
2023-01-25T23:58:33.860Z,13.51
